DAL920 KLAX-KDEN
Flight info
| Callsign | DAL920 |
|---|---|
| Flight time | N/A |
| Altitude | 41000 |
| Route | ORCKA5 LAS J146 DICEE BUMMP SSKII4 |
| Aircraft | A359/H-SDE2E3GHIJ3J4J5LM1ORWXY/LB1D1 |
Departure
| Time | 2026-04-21 02:56 |
|---|---|
| Airport | Los Angeles International Airport (KLAX) |
Arrival
| Time | N/A |
|---|---|
| Airport | Denver International Airport (KDEN) |
| Time | Latitude | Longitude | Altitude | Speed | Heading |
|---|---|---|---|---|---|
| 2026-04-21 02:29 | 33.94261 | -118.41123 | 132 ft | 0 kts | 83° |
| 2026-04-21 02:43 | 33.94259 | -118.41148 | 132 ft | 4 kts | 83° |
| 2026-04-21 02:43 | 33.94256 | -118.41180 | 132 ft | 4 kts | 83° |
| 2026-04-21 02:43 | 33.94255 | -118.41209 | 126 ft | 4 kts | 123° |
| 2026-04-21 02:44 | 33.94274 | -118.41222 | 125 ft | 4 kts | 175° |
| 2026-04-21 02:44 | 33.94291 | -118.41223 | 132 ft | 0 kts | 175° |
| 2026-04-21 02:48 | 33.94270 | -118.41221 | 122 ft | 6 kts | 175° |
| 2026-04-21 02:48 | 33.94234 | -118.41217 | 125 ft | 10 kts | 173° |
| 2026-04-21 02:48 | 33.94141 | -118.41203 | 128 ft | 16 kts | 173° |
| 2026-04-21 02:49 | 33.94024 | -118.41187 | 125 ft | 18 kts | 173° |
| 2026-04-21 02:49 | 33.93891 | -118.41167 | 132 ft | 20 kts | 173° |
| 2026-04-21 02:49 | 33.93772 | -118.41078 | 132 ft | 16 kts | 96° |
| 2026-04-21 02:49 | 33.93776 | -118.40992 | 132 ft | 15 kts | 83° |
| 2026-04-21 02:50 | 33.93791 | -118.40851 | 128 ft | 19 kts | 83° |
| 2026-04-21 02:50 | 33.93809 | -118.40684 | 132 ft | 21 kts | 83° |
| 2026-04-21 02:50 | 33.93829 | -118.40496 | 130 ft | 24 kts | 83° |
| 2026-04-21 02:50 | 33.93849 | -118.40286 | 128 ft | 26 kts | 83° |
| 2026-04-21 02:51 | 33.93872 | -118.40056 | 128 ft | 29 kts | 83° |
| 2026-04-21 02:51 | 33.93899 | -118.39814 | 127 ft | 27 kts | 83° |
| 2026-04-21 02:51 | 33.93917 | -118.39623 | 132 ft | 19 kts | 83° |
| 2026-04-21 02:51 | 33.93934 | -118.39456 | 121 ft | 22 kts | 83° |
| 2026-04-21 02:52 | 33.93953 | -118.39266 | 123 ft | 24 kts | 83° |
| 2026-04-21 02:52 | 33.93974 | -118.39066 | 127 ft | 24 kts | 82° |
| 2026-04-21 02:52 | 33.93994 | -118.38865 | 132 ft | 25 kts | 83° |
| 2026-04-21 02:52 | 33.94016 | -118.38650 | 125 ft | 24 kts | 82° |
| 2026-04-21 02:53 | 33.94038 | -118.38441 | 122 ft | 26 kts | 83° |
| 2026-04-21 02:53 | 33.94059 | -118.38233 | 132 ft | 25 kts | 83° |
| 2026-04-21 02:53 | 33.94076 | -118.38049 | 132 ft | 13 kts | 96° |
| 2026-04-21 02:53 | 33.94058 | -118.38018 | 128 ft | 4 kts | 146° |
| 2026-04-21 02:54 | 33.94009 | -118.38000 | 126 ft | 9 kts | 180° |
| 2026-04-21 02:54 | 33.93989 | -118.38023 | 132 ft | 2 kts | 252° |
| 2026-04-21 02:54 | 33.93990 | -118.38025 | 132 ft | 0 kts | 258° |
| 2026-04-21 02:55 | 33.93989 | -118.38027 | 132 ft | 4 kts | 259° |
| 2026-04-21 02:55 | 33.93953 | -118.38341 | 124 ft | 78 kts | 263° |
| 2026-04-21 02:55 | 33.93854 | -118.39277 | 125 ft | 146 kts | 262° |
| 2026-04-21 02:56 | 33.93702 | -118.40643 | 470 ft | 174 kts | 262° |
| 2026-04-21 02:56 | 33.93437 | -118.43260 | 2278 ft | 141 kts | 262° |
| 2026-04-21 02:56 | 33.93326 | -118.44406 | 2813 ft | 138 kts | 262° |
| 2026-04-21 02:57 | 33.93200 | -118.45625 | 3002 ft | 159 kts | 261° |
| 2026-04-21 02:57 | 33.92828 | -118.47003 | 3084 ft | 187 kts | 240° |
| 2026-04-21 02:57 | 33.91838 | -118.48124 | 3245 ft | 208 kts | 207° |
| 2026-04-21 02:57 | 33.90384 | -118.48380 | 3601 ft | 220 kts | 172° |
| 2026-04-21 02:58 | 33.89027 | -118.47533 | 4072 ft | 226 kts | 136° |
| 2026-04-21 02:58 | 33.88214 | -118.45917 | 4576 ft | 230 kts | 113° |
| 2026-04-21 02:58 | 33.87698 | -118.44073 | 4903 ft | 236 kts | 113° |
| 2026-04-21 02:58 | 33.86681 | -118.42423 | 4975 ft | 259 kts | 142° |
| 2026-04-21 02:59 | 33.85029 | -118.41487 | 4992 ft | 269 kts | 170° |
| 2026-04-21 02:59 | 33.83181 | -118.41577 | 4997 ft | 268 kts | 197° |
| 2026-04-21 02:59 | 33.81583 | -118.42686 | 4999 ft | 267 kts | 225° |
| 2026-04-21 02:59 | 33.80581 | -118.44512 | 5004 ft | 267 kts | 246° |